createdAt,value
2023-03-04T00:00:45.833Z,102578.97
2023-03-04T00:03:16.802Z,102574.41
2023-03-04T00:05:47.650Z,102566.91
2023-03-04T00:08:16.728Z,102568.84
2023-03-04T00:10:45.718Z,102565.69
2023-03-04T00:13:14.083Z,102563.28
2023-03-04T00:15:43.481Z,102561.69
2023-03-04T00:18:11.821Z,102562.25
2023-03-04T00:20:42.142Z,102566.47
2023-03-04T00:23:10.891Z,102564.94
2023-03-04T00:25:43.675Z,102565.28
2023-03-04T00:28:12.722Z,102560.38
2023-03-04T00:30:42.816Z,102553.75
2023-03-04T00:33:11.521Z,102560.28
2023-03-04T00:35:42.597Z,102553.88
2023-03-04T00:38:11.937Z,102554.31
2023-03-04T00:40:40.179Z,102548.00
2023-03-04T00:43:08.710Z,102543.56
2023-03-04T00:45:37.900Z,102545.31
2023-03-04T00:48:07.242Z,102533.47
2023-03-04T00:50:36.491Z,102539.44
2023-03-04T00:53:08.161Z,102548.13
2023-03-04T00:55:37.454Z,102537.59
2023-03-04T00:58:07.445Z,102535.09
2023-03-04T01:00:36.885Z,102540.09
2023-03-04T01:03:06.259Z,102531.94
2023-03-04T01:05:37.432Z,102545.84
2023-03-04T01:08:09.302Z,102531.53
2023-03-04T01:10:38.617Z,102529.78
2023-03-04T01:13:07.572Z,102536.94
2023-03-04T01:15:36.638Z,102525.88
2023-03-04T01:18:08.014Z,102534.44
2023-03-04T01:20:37.202Z,102524.25
2023-03-04T01:23:06.094Z,102530.44
2023-03-04T01:25:35.906Z,102529.88
2023-03-04T01:28:05.052Z,102527.06
2023-03-04T01:30:33.288Z,102519.66
2023-03-04T01:33:01.361Z,102525.97
2023-03-04T01:35:29.813Z,102514.03
2023-03-04T01:37:58.572Z,102516.31
2023-03-04T01:40:27.062Z,102502.66
2023-03-04T01:42:57.893Z,102508.81
2023-03-04T01:45:26.293Z,102505.66
2023-03-04T01:47:54.994Z,102503.59
2023-03-04T01:50:33.623Z,102496.25
2023-03-04T01:53:01.935Z,102501.66
2023-03-04T01:55:31.979Z,102486.81
2023-03-04T01:58:01.472Z,102489.09
2023-03-04T02:00:32.567Z,102488.22
2023-03-04T02:03:03.902Z,102478.88
2023-03-04T02:05:32.656Z,102482.25
2023-03-04T02:08:02.715Z,102479.09
2023-03-04T02:10:31.727Z,102474.09
2023-03-04T02:13:02.579Z,102474.13
2023-03-04T02:15:31.815Z,102477.47
2023-03-04T02:18:00.384Z,102478.00
2023-03-04T02:20:44.962Z,102466.59
2023-03-04T02:23:19.460Z,102482.78
2023-03-04T02:25:54.079Z,102473.69
2023-03-04T02:28:24.008Z,102469.44
2023-03-04T02:30:53.014Z,102467.59
2023-03-04T02:33:23.168Z,102459.25
2023-03-04T02:35:51.824Z,102459.56
2023-03-04T02:38:22.110Z,102447.41
2023-03-04T02:40:55.327Z,102445.22
2023-03-04T02:43:27.442Z,102454.56
2023-03-04T02:45:57.069Z,102450.44
2023-03-04T02:48:25.272Z,102448.06
2023-03-04T02:50:55.091Z,102447.41
2023-03-04T02:53:25.692Z,102450.78
2023-03-04T02:55:55.218Z,102436.34
2023-03-04T02:58:27.139Z,102440.56
2023-03-04T03:00:55.952Z,102433.28
2023-03-04T03:03:27.210Z,102432.84
2023-03-04T03:05:58.205Z,102431.25
2023-03-04T03:08:28.331Z,102433.28
2023-03-04T03:10:57.128Z,102431.66
2023-03-04T03:13:29.862Z,102418.75
2023-03-04T03:15:59.310Z,102424.91
2023-03-04T03:18:28.016Z,102415.81
2023-03-04T03:20:57.093Z,102418.88
2023-03-04T03:23:25.680Z,102416.94
2023-03-04T03:25:54.920Z,102414.97
2023-03-04T03:28:23.100Z,102405.31
2023-03-04T03:30:52.592Z,102408.78
2023-03-04T03:33:20.729Z,102408.22
2023-03-04T03:35:49.431Z,102399.88
2023-03-04T03:38:18.887Z,102400.53
2023-03-04T03:40:47.703Z,102401.84
2023-03-04T03:43:16.033Z,102402.59
2023-03-04T03:45:45.619Z,102401.84
2023-03-04T03:48:15.231Z,102412.56
2023-03-04T03:50:43.584Z,102393.06
2023-03-04T03:53:11.854Z,102398.16
2023-03-04T03:55:43.117Z,102395.97
2023-03-04T03:58:11.193Z,102399.22
2023-03-04T04:00:40.037Z,102402.50
2023-03-04T04:03:08.479Z,102399.56
2023-03-04T04:05:38.398Z,102396.28
2023-03-04T04:08:07.663Z,102396.38
2023-03-04T04:10:36.597Z,102400.84
2023-03-04T04:13:05.918Z,102400.94
2023-03-04T04:15:34.549Z,102385.31
2023-03-04T04:18:02.985Z,102394.22
2023-03-04T04:20:32.977Z,102391.84
2023-03-04T04:23:03.172Z,102394.22
2023-03-04T04:25:32.513Z,102386.19
2023-03-04T04:28:01.178Z,102391.28
2023-03-04T04:30:29.486Z,102390.88
2023-03-04T04:33:01.579Z,102392.47
2023-03-04T04:35:29.891Z,102386.41
2023-03-04T04:37:58.176Z,102389.44
2023-03-04T04:40:28.457Z,102382.81
2023-03-04T04:42:57.468Z,102383.38
2023-03-04T04:45:27.311Z,102385.25
2023-03-04T04:47:57.579Z,102387.16
2023-03-04T04:50:27.992Z,102382.72
2023-03-04T04:52:56.776Z,102388.38
2023-03-04T04:55:26.006Z,102385.53
2023-03-04T04:57:56.291Z,102381.50
2023-03-04T05:00:24.324Z,102378.16
2023-03-04T05:02:53.371Z,102385.56
2023-03-04T05:05:22.090Z,102388.16
2023-03-04T05:07:50.738Z,102387.97
2023-03-04T05:10:19.376Z,102382.63
2023-03-04T05:12:48.229Z,102379.50
2023-03-04T05:15:18.181Z,102378.81
2023-03-04T05:17:48.042Z,102372.19
2023-03-04T05:20:17.418Z,102381.34
2023-03-04T05:22:45.896Z,102383.16
2023-03-04T05:25:14.317Z,102379.91
2023-03-04T05:27:42.648Z,102379.69
2023-03-04T05:30:12.804Z,102385.66
2023-03-04T05:32:42.813Z,102371.44
2023-03-04T05:35:12.305Z,102379.03
2023-03-04T05:37:40.963Z,102375.59
2023-03-04T05:40:13.001Z,102374.50
2023-03-04T05:42:41.740Z,102371.34
2023-03-04T05:45:11.232Z,102379.16
2023-03-04T05:47:39.620Z,102381.34
2023-03-04T05:50:11.816Z,102376.25
2023-03-04T05:52:40.563Z,102371.81
2023-03-04T05:55:10.474Z,102371.38
2023-03-04T05:57:39.332Z,102369.53
2023-03-04T06:00:10.731Z,102366.91
2023-03-04T06:02:42.399Z,102369.19
2023-03-04T06:05:13.942Z,102367.13
2023-03-04T06:07:43.589Z,102373.41
2023-03-04T06:10:14.890Z,102378.09
2023-03-04T06:12:43.904Z,102380.38
2023-03-04T06:15:13.847Z,102371.34
2023-03-04T06:17:43.422Z,102388.63
2023-03-04T06:20:14.373Z,102383.31
2023-03-04T06:22:42.869Z,102386.22
2023-03-04T06:25:11.603Z,102385.25
2023-03-04T06:27:40.458Z,102386.31
2023-03-04T06:30:11.831Z,102389.91
2023-03-04T06:32:40.457Z,102381.34
2023-03-04T06:35:10.015Z,102389.81
2023-03-04T06:37:39.799Z,102389.50
2023-03-04T06:40:12.098Z,102382.66
2023-03-04T06:42:42.690Z,102386.00
2023-03-04T06:45:14.288Z,102388.41
2023-03-04T06:47:44.724Z,102387.19
2023-03-04T06:50:15.139Z,102384.38
2023-03-04T06:52:45.185Z,102391.13
2023-03-04T06:55:16.267Z,102391.09
2023-03-04T06:57:45.512Z,102396.75
2023-03-04T07:00:17.333Z,102404.56
2023-03-04T07:02:45.872Z,102397.41
2023-03-04T07:05:14.214Z,102396.31
2023-03-04T07:07:44.565Z,102396.41
2023-03-04T07:10:13.785Z,102397.94
2023-03-04T07:12:42.701Z,102400.34
2023-03-04T07:15:12.535Z,102402.19
2023-03-04T07:17:41.455Z,102396.31
2023-03-04T07:20:11.433Z,102401.84
2023-03-04T07:22:39.937Z,102404.03
2023-03-04T07:25:11.742Z,102401.84
2023-03-04T07:27:41.092Z,102405.34
2023-03-04T07:30:11.498Z,102404.56
2023-03-04T07:32:40.812Z,102407.91
2023-03-04T07:35:10.632Z,102410.09
2023-03-04T07:37:40.746Z,102412.38
2023-03-04T07:40:13.009Z,102415.66
2023-03-04T07:42:42.267Z,102412.59
2023-03-04T07:45:14.187Z,102414.31
2023-03-04T07:47:42.685Z,102418.22
2023-03-04T07:50:14.681Z,102424.72
2023-03-04T07:52:46.362Z,102427.97
2023-03-04T07:55:17.799Z,102439.56
2023-03-04T07:57:48.339Z,102435.13
2023-03-04T08:00:19.116Z,102435.81
2023-03-04T08:02:47.814Z,102437.53
2023-03-04T08:05:16.199Z,102443.72
2023-03-04T08:07:44.705Z,102431.66
2023-03-04T08:10:14.263Z,102425.50
2023-03-04T08:12:44.082Z,102428.75
2023-03-04T08:15:13.277Z,102441.00
2023-03-04T08:17:41.647Z,102428.19
2023-03-04T08:20:11.586Z,102439.41
2023-03-04T08:22:40.361Z,102442.84
2023-03-04T08:25:09.329Z,102430.03
2023-03-04T08:27:38.499Z,102446.00
2023-03-04T08:30:10.602Z,102440.78
2023-03-04T08:32:39.183Z,102437.63
2023-03-04T08:35:08.186Z,102445.66
2023-03-04T08:37:36.896Z,102441.78
2023-03-04T08:40:07.204Z,102449.34
2023-03-04T08:42:35.471Z,102446.00
2023-03-04T08:45:04.734Z,102447.09
2023-03-04T08:47:34.670Z,102448.06
2023-03-04T08:50:02.934Z,102447.41
2023-03-04T08:52:31.944Z,102449.78
2023-03-04T08:55:00.831Z,102455.88
2023-03-04T08:57:29.194Z,102459.78
2023-03-04T08:59:57.556Z,102449.47
2023-03-04T09:02:26.350Z,102446.88
2023-03-04T09:04:56.610Z,102447.94
2023-03-04T09:07:25.012Z,102454.69
2023-03-04T09:09:53.773Z,102454.78
2023-03-04T09:12:22.042Z,102438.06
2023-03-04T09:15:04.619Z,102449.28
2023-03-04T09:17:39.190Z,102446.56
2023-03-04T09:20:11.455Z,102456.53
2023-03-04T09:22:40.671Z,102460.75
2023-03-04T09:25:12.996Z,102474.44
2023-03-04T09:27:41.964Z,102460.66
2023-03-04T09:30:12.066Z,102461.94
2023-03-04T09:32:41.477Z,102462.47
2023-03-04T09:35:12.105Z,102457.63
2023-03-04T09:37:41.811Z,102463.34
2023-03-04T09:40:17.764Z,102463.25
2023-03-04T09:42:50.299Z,102459.47
2023-03-04T09:45:22.391Z,102462.06
2023-03-04T09:47:54.127Z,102452.72
2023-03-04T09:50:24.361Z,102470.44
2023-03-04T09:53:07.894Z,102460.44
2023-03-04T09:55:39.467Z,102459.00
2023-03-04T09:58:21.326Z,102464.97
2023-03-04T10:00:57.110Z,102463.13
2023-03-04T10:03:30.633Z,102480.19
2023-03-04T10:06:07.853Z,102472.16
2023-03-04T10:08:52.732Z,102466.06
2023-03-04T10:11:27.834Z,102470.84
2023-03-04T10:14:05.301Z,102469.88
2023-03-04T10:16:41.074Z,102467.59
2023-03-04T10:19:26.710Z,102463.34
2023-03-04T10:21:56.662Z,102456.84
2023-03-04T10:24:29.819Z,102468.03
2023-03-04T10:27:06.521Z,102467.06
2023-03-04T10:29:36.609Z,102475.50
2023-03-04T10:32:05.881Z,102470.97
2023-03-04T10:34:34.645Z,102472.06
2023-03-04T10:37:08.882Z,102465.97
2023-03-04T10:39:39.876Z,102457.63
2023-03-04T10:42:24.984Z,102471.81
2023-03-04T10:44:55.376Z,102466.28
2023-03-04T10:47:26.949Z,102453.59
2023-03-04T10:49:57.623Z,102459.78
2023-03-04T10:52:33.079Z,102465.84
2023-03-04T10:55:05.659Z,102463.38
2023-03-04T10:57:38.010Z,102461.41
2023-03-04T11:00:26.436Z,102466.94
2023-03-04T11:02:54.967Z,102463.81
2023-03-04T11:05:26.082Z,102465.50
2023-03-04T11:07:57.784Z,102459.56
2023-03-04T11:10:30.608Z,102466.06
2023-03-04T11:13:04.560Z,102462.19
2023-03-04T11:15:50.593Z,102453.38
2023-03-04T11:18:26.826Z,102457.63
2023-03-04T11:20:56.502Z,102449.97
2023-03-04T11:23:36.450Z,102458.00
2023-03-04T11:26:12.851Z,102462.47
2023-03-04T11:28:46.322Z,102464.50
2023-03-04T11:31:17.712Z,102460.19
2023-03-04T11:33:53.725Z,102456.53
2023-03-04T11:36:34.582Z,102457.06
2023-03-04T11:39:15.064Z,102457.72
2023-03-04T11:41:49.729Z,102454.25
2023-03-04T11:44:17.997Z,102446.19
2023-03-04T11:47:14.421Z,102438.16
2023-03-04T11:50:16.556Z,102436.09
2023-03-04T11:53:29.967Z,102442.06
2023-03-04T11:56:17.935Z,102439.25
2023-03-04T11:59:05.369Z,102434.47
2023-03-04T12:01:44.265Z,102423.06
2023-03-04T12:04:28.031Z,102431.41
2023-03-04T12:07:13.399Z,102422.38
2023-03-04T12:09:50.617Z,102424.28
2023-03-04T12:12:45.965Z,102415.22
2023-03-04T12:15:22.329Z,102415.06
2023-03-04T12:18:13.371Z,102408.03
2023-03-04T12:20:59.177Z,102417.00
2023-03-04T12:23:46.440Z,102414.16
2023-03-04T12:26:31.029Z,102412.53
2023-03-04T12:29:08.990Z,102407.56
2023-03-04T12:31:40.310Z,102399.59
2023-03-04T12:34:30.953Z,102403.19
2023-03-04T12:37:26.129Z,102399.59
2023-03-04T12:40:13.080Z,102395.25
2023-03-04T12:42:53.058Z,102394.47
2023-03-04T12:45:31.949Z,102399.06
2023-03-04T12:48:07.381Z,102407.66
2023-03-04T12:50:44.882Z,102413.88
2023-03-04T12:53:22.598Z,102405.19
2023-03-04T12:55:51.417Z,102409.41
2023-03-04T12:58:24.189Z,102415.72
2023-03-04T13:01:02.178Z,102409.63
2023-03-04T13:03:43.426Z,102405.09
2023-03-04T13:06:27.784Z,102400.28
2023-03-04T13:09:05.276Z,102398.34
2023-03-04T13:11:41.858Z,102406.91
2023-03-04T13:14:25.803Z,102395.88
2023-03-04T13:16:56.092Z,102393.13
2023-03-04T13:19:48.220Z,102392.38
2023-03-04T13:22:36.906Z,102386.00
2023-03-04T13:25:31.876Z,102382.50
2023-03-04T13:28:27.293Z,102390.28
2023-03-04T13:31:19.384Z,102374.66
2023-03-04T13:34:02.450Z,102377.56
2023-03-04T13:36:59.294Z,102369.50
2023-03-04T13:39:35.670Z,102372.13
2023-03-04T13:42:26.375Z,102372.13
2023-03-04T13:45:00.639Z,102374.13
2023-03-04T13:47:41.288Z,102362.06
2023-03-04T13:50:37.128Z,102366.22
2023-03-04T13:53:50.785Z,102361.25
2023-03-04T13:56:26.018Z,102362.38
2023-03-04T13:59:05.975Z,102355.81
2023-03-04T14:01:36.475Z,102355.00
2023-03-04T14:04:18.540Z,102360.69
2023-03-04T14:06:49.734Z,102358.25
2023-03-04T14:09:22.518Z,102362.50
2023-03-04T14:11:53.974Z,102360.38
2023-03-04T14:14:25.423Z,102354.75
2023-03-04T14:16:57.887Z,102369.81
2023-03-04T14:19:29.509Z,102357.16
2023-03-04T14:22:01.932Z,102351.94
2023-03-04T14:24:32.295Z,102357.75
2023-03-04T14:27:13.652Z,102354.00
2023-03-04T14:29:42.989Z,102347.38
2023-03-04T14:32:13.566Z,102349.50
2023-03-04T14:34:43.035Z,102349.75
2023-03-04T14:37:24.185Z,102363.31
2023-03-04T14:39:58.476Z,102362.94
2023-03-04T14:42:43.541Z,102363.31
2023-03-04T14:45:16.774Z,102373.09
2023-03-04T14:47:48.669Z,102368.22
2023-03-04T14:50:20.007Z,102359.22
2023-03-04T14:52:51.916Z,102351.03
2023-03-04T14:55:26.603Z,102350.09
2023-03-04T14:58:08.564Z,102344.28
2023-03-04T15:00:39.195Z,102348.69
2023-03-04T15:03:21.836Z,102351.31
2023-03-04T15:05:53.027Z,102359.34
2023-03-04T15:08:25.056Z,102337.88
2023-03-04T15:10:59.306Z,102335.06
2023-03-04T15:13:41.628Z,102342.59
2023-03-04T15:16:11.215Z,102338.47
2023-03-04T15:18:39.926Z,102337.47
2023-03-04T15:21:37.973Z,102338.63
2023-03-04T15:24:09.503Z,102335.78
2023-03-04T15:26:41.328Z,102322.44
2023-03-04T15:29:16.060Z,102320.47
2023-03-04T15:31:44.945Z,102320.38
2023-03-04T15:34:14.390Z,102318.69
2023-03-04T15:36:46.845Z,102322.25
2023-03-04T15:39:18.880Z,102320.63
2023-03-04T15:41:48.473Z,102330.56
2023-03-04T15:44:17.475Z,102332.56
2023-03-04T15:46:45.708Z,102331.13
2023-03-04T15:49:14.008Z,102322.91
2023-03-04T15:51:42.397Z,102317.03
2023-03-04T15:54:14.346Z,102315.06
2023-03-04T15:56:44.201Z,102305.50
2023-03-04T15:59:14.293Z,102318.72
2023-03-04T16:01:43.435Z,102322.44
2023-03-04T16:04:14.404Z,102324.09
2023-03-04T16:06:43.420Z,102321.97
2023-03-04T16:09:14.579Z,102327.63
2023-03-04T16:11:47.726Z,102318.94
2023-03-04T16:14:16.456Z,102318.91
2023-03-04T16:16:46.952Z,102322.16
2023-03-04T16:19:15.007Z,102320.13
2023-03-04T16:21:43.415Z,102329.09
2023-03-04T16:24:17.773Z,102328.47
2023-03-04T16:26:47.760Z,102322.63
2023-03-04T16:29:16.712Z,102324.81
2023-03-04T16:31:45.008Z,102323.50
2023-03-04T16:34:13.508Z,102320.91
2023-03-04T16:36:41.981Z,102318.63
2023-03-04T16:39:19.812Z,102317.28
2023-03-04T16:41:50.224Z,102318.59
2023-03-04T16:44:18.912Z,102322.81
2023-03-04T16:46:47.587Z,102320.59
2023-03-04T16:49:16.586Z,102310.63
2023-03-04T16:51:49.699Z,102309.09
2023-03-04T16:54:20.556Z,102307.81
2023-03-04T16:56:50.268Z,102304.16
2023-03-04T16:59:19.087Z,102298.16
2023-03-04T17:01:47.721Z,102303.59
2023-03-04T17:04:16.175Z,102298.72
2023-03-04T17:06:44.325Z,102296.09
2023-03-04T17:09:12.746Z,102302.94
2023-03-04T17:11:41.154Z,102298.63
2023-03-04T17:14:10.708Z,102294.59
2023-03-04T17:16:39.108Z,102295.56
2023-03-04T17:19:07.694Z,102291.13
2023-03-04T17:21:36.139Z,102296.97
2023-03-04T17:24:06.293Z,102296.19
2023-03-04T17:26:34.727Z,102296.97
2023-03-04T17:29:03.208Z,102289.44
2023-03-04T17:31:33.844Z,102291.41
2023-03-04T17:34:02.362Z,102300.88
2023-03-04T17:36:31.171Z,102300.22
2023-03-04T17:39:01.469Z,102300.88
2023-03-04T17:41:30.080Z,102295.66
2023-03-04T17:43:58.038Z,102299.59
2023-03-04T17:46:28.842Z,102306.75
2023-03-04T17:49:03.591Z,102302.97
2023-03-04T17:51:35.103Z,102300.59
2023-03-04T17:54:06.015Z,102302.72
2023-03-04T17:56:36.388Z,102301.09
2023-03-04T17:59:08.034Z,102303.06
2023-03-04T18:01:36.594Z,102303.03
2023-03-04T18:04:09.083Z,102307.34
2023-03-04T18:06:37.504Z,102305.09
2023-03-04T18:09:06.471Z,102321.00
2023-03-04T18:11:38.368Z,102306.16
2023-03-04T18:14:14.721Z,102311.06
2023-03-04T18:16:45.603Z,102309.09
2023-03-04T18:19:18.758Z,102312.78
2023-03-04T18:21:49.238Z,102306.28
2023-03-04T18:24:19.556Z,102309.84
2023-03-04T18:26:49.502Z,102304.59
2023-03-04T18:29:20.093Z,102306.34
2023-03-04T18:31:50.383Z,102304.03
2023-03-04T18:34:23.296Z,102299.75
2023-03-04T18:36:54.883Z,102296.94
2023-03-04T18:39:25.646Z,102300.00
2023-03-04T18:41:55.877Z,102304.06
2023-03-04T18:44:29.617Z,102296.78
2023-03-04T18:46:59.962Z,102296.38
2023-03-04T18:49:31.334Z,102295.19
2023-03-04T18:52:01.726Z,102290.75
2023-03-04T18:54:35.846Z,102289.47
2023-03-04T18:57:11.975Z,102283.84
2023-03-04T18:59:46.260Z,102291.03
2023-03-04T19:02:24.215Z,102286.47
2023-03-04T19:04:59.708Z,102288.66
2023-03-04T19:07:29.629Z,102297.09
2023-03-04T19:10:00.884Z,102297.63
2023-03-04T19:12:32.275Z,102289.59
2023-03-04T19:15:02.110Z,102282.78
2023-03-04T19:17:33.330Z,102289.72
2023-03-04T19:20:09.300Z,102274.13
2023-03-04T19:22:40.837Z,102281.56
2023-03-04T19:25:13.646Z,102268.47
2023-03-04T19:27:44.777Z,102270.34
2023-03-04T19:30:16.606Z,102272.63
2023-03-04T19:32:46.886Z,102276.06
2023-03-04T19:35:19.342Z,102279.44
2023-03-04T19:37:48.192Z,102278.00
2023-03-04T19:40:16.562Z,102268.47
2023-03-04T19:42:44.912Z,102271.25
2023-03-04T19:45:13.585Z,102276.50
2023-03-04T19:47:42.080Z,102267.25
2023-03-04T19:50:14.118Z,102260.66
2023-03-04T19:52:44.365Z,102267.50
2023-03-04T19:55:14.050Z,102275.28
2023-03-04T19:57:43.378Z,102274.06
2023-03-04T20:00:13.249Z,102269.06
2023-03-04T20:02:43.072Z,102266.81
2023-03-04T20:05:12.678Z,102263.56
2023-03-04T20:07:40.958Z,102266.63
2023-03-04T20:10:12.691Z,102262.53
2023-03-04T20:12:40.896Z,102262.75
2023-03-04T20:15:10.006Z,102260.47
2023-03-04T20:17:38.120Z,102261.88
2023-03-04T20:20:10.589Z,102260.44
2023-03-04T20:22:38.896Z,102259.81
2023-03-04T20:25:08.352Z,102247.69
2023-03-04T20:27:38.016Z,102254.59
2023-03-04T20:30:07.706Z,102253.53
2023-03-04T20:32:35.788Z,102262.63
2023-03-04T20:35:04.779Z,102258.19
2023-03-04T20:37:34.370Z,102262.94
2023-03-04T20:40:02.694Z,102257.09
2023-03-04T20:42:31.879Z,102259.59
2023-03-04T20:45:01.283Z,102263.41
2023-03-04T20:47:31.156Z,102255.94
2023-03-04T20:49:59.309Z,102253.19
2023-03-04T20:52:27.302Z,102250.59
2023-03-04T20:54:56.465Z,102247.41
2023-03-04T20:57:25.658Z,102247.94
2023-03-04T20:59:54.847Z,102250.22
2023-03-04T21:02:25.555Z,102240.00
2023-03-04T21:04:55.845Z,102245.94
2023-03-04T21:07:26.558Z,102239.78
2023-03-04T21:09:55.267Z,102233.13
2023-03-04T21:12:24.669Z,102232.28
2023-03-04T21:14:53.978Z,102227.81
2023-03-04T21:17:24.604Z,102228.97
2023-03-04T21:19:54.768Z,102225.38
2023-03-04T21:22:23.188Z,102226.97
2023-03-04T21:24:51.631Z,102220.91
2023-03-04T21:27:20.467Z,102216.44
2023-03-04T21:29:49.993Z,102220.25
2023-03-04T21:32:25.455Z,102214.56
2023-03-04T21:34:57.326Z,102218.69
2023-03-04T21:37:26.462Z,102222.88
2023-03-04T21:39:56.689Z,102224.66
2023-03-04T21:42:26.130Z,102212.31
2023-03-04T21:44:55.888Z,102207.75
2023-03-04T21:47:24.711Z,102210.25
2023-03-04T21:49:53.635Z,102205.91
2023-03-04T21:52:23.553Z,102204.72
2023-03-04T21:54:52.209Z,102200.19
2023-03-04T21:57:21.239Z,102200.81
2023-03-04T21:59:50.384Z,102197.78
2023-03-04T22:02:20.867Z,102192.69
2023-03-04T22:04:49.973Z,102193.09
2023-03-04T22:07:19.065Z,102185.28
2023-03-04T22:09:49.152Z,102185.69
2023-03-04T22:12:19.548Z,102180.13
2023-03-04T22:14:49.306Z,102180.28
2023-03-04T22:17:18.614Z,102185.28
2023-03-04T22:19:47.118Z,102174.31
2023-03-04T22:22:18.196Z,102174.53
2023-03-04T22:24:46.822Z,102180.41
2023-03-04T22:27:17.236Z,102175.31
2023-03-04T22:29:45.618Z,102169.22
2023-03-04T22:32:18.010Z,102170.41
2023-03-04T22:34:47.100Z,102167.50
2023-03-04T22:37:16.798Z,102160.00
2023-03-04T22:39:45.926Z,102165.78
2023-03-04T22:42:17.571Z,102167.28
2023-03-04T22:44:46.248Z,102166.56
2023-03-04T22:47:15.111Z,102162.53
2023-03-04T22:49:43.939Z,102152.44
2023-03-04T22:52:12.728Z,102145.63
2023-03-04T22:54:41.131Z,102147.16
2023-03-04T22:57:09.770Z,102160.81
2023-03-04T22:59:40.075Z,102171.97
2023-03-04T23:02:08.955Z,102172.91
2023-03-04T23:04:38.200Z,102163.16
2023-03-04T23:07:07.182Z,102161.41
2023-03-04T23:09:35.889Z,102147.78
2023-03-04T23:12:04.596Z,102149.41
2023-03-04T23:14:32.951Z,102137.19
2023-03-04T23:17:03.670Z,102145.00
2023-03-04T23:19:32.748Z,102135.34
2023-03-04T23:22:03.132Z,102136.09
2023-03-04T23:24:31.902Z,102122.66
2023-03-04T23:27:00.626Z,102133.19
2023-03-04T23:29:29.948Z,102125.28
2023-03-04T23:31:58.670Z,102127.13
2023-03-04T23:34:29.551Z,102129.41
2023-03-04T23:36:58.564Z,102120.06
2023-03-04T23:39:27.245Z,102114.78
2023-03-04T23:41:55.916Z,102115.63
2023-03-04T23:44:24.877Z,102116.94
2023-03-04T23:46:53.760Z,102114.56
2023-03-04T23:49:21.834Z,102119.28
2023-03-04T23:51:51.260Z,102119.81
2023-03-04T23:54:19.399Z,102120.81
2023-03-04T23:56:47.891Z,102109.56
2023-03-04T23:59:16.528Z,102108.34
